createdAt,value
2023-04-15T00:02:29.685Z,97674.16
2023-04-15T00:05:16.885Z,97667.28
2023-04-15T00:08:04.104Z,97662.69
2023-04-15T00:10:51.271Z,97679.09
2023-04-15T00:13:39.679Z,97670.47
2023-04-15T00:16:26.807Z,97670.13
2023-04-15T00:19:13.872Z,97663.72
2023-04-15T00:22:01.578Z,97684.81
2023-04-15T00:24:48.635Z,97678.78
2023-04-15T00:27:35.971Z,97670.06
2023-04-15T00:30:24.111Z,97664.66
2023-04-15T00:33:11.476Z,97661.44
2023-04-15T00:35:59.042Z,97660.75
2023-04-15T00:38:46.103Z,97672.25
2023-04-15T00:41:34.328Z,97665.66
2023-04-15T00:44:21.717Z,97667.22
2023-04-15T00:47:09.783Z,97680.38
2023-04-15T00:49:56.940Z,97675.06
2023-04-15T00:52:43.950Z,97660.06
2023-04-15T00:55:30.959Z,97676.81
2023-04-15T00:58:18.471Z,97660.84
2023-04-15T01:01:05.666Z,97672.72
2023-04-15T01:03:52.969Z,97671.88
2023-04-15T01:06:40.300Z,97685.34
2023-04-15T01:09:27.323Z,97693.34
2023-04-15T01:12:18.445Z,97690.06
2023-04-15T01:15:06.033Z,97690.81
2023-04-15T01:17:53.226Z,97693.97
2023-04-15T01:20:41.203Z,97696.03
2023-04-15T01:23:29.192Z,97690.78
2023-04-15T01:26:17.544Z,97704.03
2023-04-15T01:29:04.775Z,97696.31
2023-04-15T01:31:53.461Z,97696.41
2023-04-15T01:34:40.545Z,97703.06
2023-04-15T01:37:27.702Z,97684.22
2023-04-15T01:40:15.500Z,97696.03
2023-04-15T01:43:03.907Z,97694.66
2023-04-15T01:45:51.336Z,97689.34
2023-04-15T01:48:38.379Z,97701.50
2023-04-15T01:51:25.475Z,97699.22
2023-04-15T01:54:12.610Z,97703.56
2023-04-15T01:56:59.825Z,97702.94
2023-04-15T01:59:47.109Z,97706.69
2023-04-15T02:02:34.714Z,97709.03
2023-04-15T02:05:21.882Z,97718.69
2023-04-15T02:08:09.638Z,97710.94
2023-04-15T02:10:56.856Z,97714.88
2023-04-15T02:13:43.917Z,97712.44
2023-04-15T02:16:30.918Z,97709.03
2023-04-15T02:19:18.375Z,97721.66
2023-04-15T02:22:05.499Z,97725.31
2023-04-15T02:24:52.726Z,97716.09
2023-04-15T02:27:39.996Z,97710.03
2023-04-15T02:30:27.388Z,97709.53
2023-04-15T02:33:14.495Z,97697.78
2023-04-15T02:36:01.883Z,97712.75
2023-04-15T02:38:48.898Z,97707.88
2023-04-15T02:41:35.944Z,97710.91
2023-04-15T02:44:25.057Z,97701.75
2023-04-15T02:47:12.182Z,97702.72
2023-04-15T02:50:00.644Z,97714.41
2023-04-15T02:52:48.044Z,97717.09
2023-04-15T02:55:35.094Z,97703.03
2023-04-15T02:58:22.183Z,97718.53
2023-04-15T03:01:09.282Z,97712.22
2023-04-15T03:03:56.592Z,97723.03
2023-04-15T03:06:43.790Z,97715.81
2023-04-15T03:09:30.954Z,97716.78
2023-04-15T03:12:17.983Z,97724.22
2023-04-15T03:15:05.407Z,97716.09
2023-04-15T03:17:52.710Z,97719.16
2023-04-15T03:20:39.772Z,97712.75
2023-04-15T03:23:27.051Z,97712.75
2023-04-15T03:26:26.410Z,97712.50
2023-04-15T03:29:13.488Z,97722.56
2023-04-15T03:32:00.549Z,97716.16
2023-04-15T03:34:47.524Z,97721.06
2023-04-15T03:37:34.735Z,97727.78
2023-04-15T03:40:21.900Z,97716.69
2023-04-15T03:43:08.974Z,97724.97
2023-04-15T03:45:56.028Z,97729.44
2023-04-15T03:48:43.101Z,97726.56
2023-04-15T03:51:30.083Z,97740.91
2023-04-15T03:54:17.082Z,97724.56
2023-04-15T03:57:04.095Z,97727.94
2023-04-15T03:59:51.416Z,97735.16
2023-04-15T04:02:38.669Z,97724.13
2023-04-15T04:05:26.101Z,97726.94
2023-04-15T04:08:16.875Z,97732.41
2023-04-15T04:11:04.238Z,97732.63
2023-04-15T04:13:51.258Z,97738.09
2023-04-15T04:16:38.299Z,97748.75
2023-04-15T04:19:25.516Z,97746.41
2023-04-15T04:22:12.551Z,97750.41
2023-04-15T04:25:00.627Z,97753.63
2023-04-15T04:27:47.688Z,97745.03
2023-04-15T04:30:35.994Z,97742.88
2023-04-15T04:33:23.076Z,97754.47
2023-04-15T04:36:10.062Z,97750.97
2023-04-15T04:38:57.375Z,97756.88
2023-04-15T04:41:44.898Z,97755.50
2023-04-15T04:44:31.984Z,97759.69
2023-04-15T04:47:19.024Z,97769.34
2023-04-15T04:50:06.980Z,97769.53
2023-04-15T04:52:53.943Z,97772.25
2023-04-15T04:55:40.936Z,97773.00
2023-04-15T04:58:27.954Z,97761.97
2023-04-15T05:01:14.988Z,97786.25
2023-04-15T05:04:02.254Z,97777.31
2023-04-15T05:06:49.450Z,97787.72
2023-04-15T05:09:36.942Z,97788.63
2023-04-15T05:12:24.117Z,97779.44
2023-04-15T05:15:11.641Z,97789.25
2023-04-15T05:17:58.901Z,97790.34
2023-04-15T05:20:46.410Z,97799.91
2023-04-15T05:23:33.988Z,97778.06
2023-04-15T05:26:22.205Z,97795.63
2023-04-15T05:29:09.674Z,97787.44
2023-04-15T05:31:56.932Z,97784.78
2023-04-15T05:34:44.035Z,97796.50
2023-04-15T05:37:32.260Z,97783.84
2023-04-15T05:40:20.249Z,97796.66
2023-04-15T05:43:07.295Z,97796.34
2023-04-15T05:45:54.540Z,97796.09
2023-04-15T05:48:41.756Z,97807.84
2023-04-15T05:51:28.761Z,97807.31
2023-04-15T05:54:17.356Z,97809.50
2023-04-15T05:57:05.728Z,97812.88
2023-04-15T05:59:52.923Z,97811.88
2023-04-15T06:02:40.134Z,97815.91
2023-04-15T06:05:27.970Z,97803.78
2023-04-15T06:08:15.157Z,97816.78
2023-04-15T06:11:03.436Z,97828.53
2023-04-15T06:13:51.555Z,97828.09
2023-04-15T06:16:38.830Z,97828.38
2023-04-15T06:19:26.346Z,97815.97
2023-04-15T06:22:13.341Z,97836.44
2023-04-15T06:25:00.591Z,97819.97
2023-04-15T06:27:48.413Z,97836.16
2023-04-15T06:30:36.260Z,97839.09
2023-04-15T06:33:23.284Z,97836.41
2023-04-15T06:36:10.394Z,97836.00
2023-04-15T06:38:57.799Z,97829.41
2023-04-15T06:41:45.000Z,97839.16
2023-04-15T06:44:33.784Z,97828.41
2023-04-15T06:47:21.095Z,97842.38
2023-04-15T06:50:09.428Z,97842.75
2023-04-15T06:52:57.359Z,97843.59
2023-04-15T06:55:44.863Z,97853.25
2023-04-15T06:58:31.884Z,97861.78
2023-04-15T07:01:18.914Z,97844.03
2023-04-15T07:04:06.358Z,97845.03
2023-04-15T07:06:54.392Z,97858.03
2023-04-15T07:09:41.792Z,97859.94
2023-04-15T07:12:28.971Z,97850.75
2023-04-15T07:15:16.649Z,97865.25
2023-04-15T07:18:03.842Z,97872.09
2023-04-15T07:20:51.730Z,97870.38
2023-04-15T07:23:38.695Z,97860.63
2023-04-15T07:26:25.718Z,97879.75
2023-04-15T07:29:12.732Z,97880.19
2023-04-15T07:31:59.870Z,97877.97
2023-04-15T07:34:47.080Z,97899.22
2023-04-15T07:37:34.124Z,97877.69
2023-04-15T07:40:22.475Z,97891.00
2023-04-15T07:43:10.099Z,97882.31
2023-04-15T07:45:57.092Z,97888.72
2023-04-15T07:48:44.155Z,97901.16
2023-04-15T07:51:32.399Z,97893.47
2023-04-15T07:54:19.446Z,97902.59
2023-04-15T07:57:06.712Z,97903.81
2023-04-15T07:59:53.689Z,97894.44
2023-04-15T08:02:41.815Z,97888.38
2023-04-15T08:05:29.014Z,97904.50
2023-04-15T08:08:15.981Z,97900.75
2023-04-15T08:11:03.077Z,97902.28
2023-04-15T08:13:50.103Z,97902.97
2023-04-15T08:16:37.544Z,97906.69
2023-04-15T08:19:24.669Z,97913.19
2023-04-15T08:22:17.787Z,97917.13
2023-04-15T08:25:05.734Z,97911.00
2023-04-15T08:27:55.410Z,97923.00
2023-04-15T08:30:42.639Z,97917.28
2023-04-15T08:33:29.925Z,97921.91
2023-04-15T08:36:17.691Z,97924.56
2023-04-15T08:39:05.242Z,97937.16
2023-04-15T08:42:01.990Z,97935.03
2023-04-15T08:44:49.650Z,97932.50
2023-04-15T08:47:39.947Z,97935.47
2023-04-15T08:50:30.585Z,97951.63
2023-04-15T08:53:18.408Z,97941.72
2023-04-15T08:56:10.352Z,97942.03
2023-04-15T08:58:57.971Z,97944.69
2023-04-15T09:01:45.763Z,97933.00
2023-04-15T09:04:33.106Z,97946.69
2023-04-15T09:07:20.221Z,97958.06
2023-04-15T09:10:08.311Z,97961.44
2023-04-15T09:12:56.561Z,97958.06
2023-04-15T09:15:44.150Z,97951.78
2023-04-15T09:18:33.745Z,97963.91
2023-04-15T09:21:22.316Z,97958.03
2023-04-15T09:24:09.512Z,97960.31
2023-04-15T09:26:58.499Z,97976.53
2023-04-15T09:29:50.417Z,97962.56
2023-04-15T09:32:58.074Z,97958.09
2023-04-15T09:36:05.314Z,97978.50
2023-04-15T09:39:00.130Z,97987.09
2023-04-15T09:41:47.304Z,97985.88
2023-04-15T09:44:34.616Z,97995.91
2023-04-15T09:47:29.441Z,97996.31
2023-04-15T09:50:16.566Z,97984.41
2023-04-15T09:53:04.141Z,97996.91
2023-04-15T09:55:55.984Z,97999.59
2023-04-15T09:58:43.435Z,97991.19
2023-04-15T10:01:31.249Z,97986.63
2023-04-15T10:04:18.579Z,97985.31
2023-04-15T10:07:06.447Z,98010.06
2023-04-15T10:09:54.147Z,98005.56
2023-04-15T10:12:42.378Z,98004.50
2023-04-15T10:15:31.192Z,98003.81
2023-04-15T10:18:21.702Z,98022.72
2023-04-15T10:21:10.045Z,98027.06
2023-04-15T10:23:58.562Z,98027.91
2023-04-15T10:26:45.890Z,98000.59
2023-04-15T10:29:33.199Z,98025.53
2023-04-15T10:32:22.788Z,98032.22
2023-04-15T10:35:10.962Z,98030.41
2023-04-15T10:37:58.258Z,98033.78
2023-04-15T10:40:45.876Z,98039.38
2023-04-15T10:43:33.012Z,98041.19
2023-04-15T10:46:43.482Z,98054.16
2023-04-15T10:49:30.753Z,98045.09
2023-04-15T10:52:22.862Z,98059.91
2023-04-15T10:55:22.900Z,98065.78
2023-04-15T10:58:10.484Z,98059.97
2023-04-15T11:00:57.599Z,98070.25
2023-04-15T11:03:44.818Z,98080.47
2023-04-15T11:06:45.037Z,98084.81
2023-04-15T11:09:33.972Z,98086.09
2023-04-15T11:12:21.874Z,98070.34
2023-04-15T11:15:33.216Z,98085.94
2023-04-15T11:18:23.162Z,98087.59
2023-04-15T11:21:10.342Z,98080.38
2023-04-15T11:23:57.825Z,98085.97
2023-04-15T11:26:44.834Z,98083.97
2023-04-15T11:29:32.511Z,98095.03
2023-04-15T11:32:21.596Z,98103.75
2023-04-15T11:35:08.948Z,98095.03
2023-04-15T11:37:56.387Z,98104.19
2023-04-15T11:40:46.345Z,98109.09
2023-04-15T11:43:35.671Z,98102.66
2023-04-15T11:46:30.433Z,98111.91
2023-04-15T11:49:31.302Z,98101.09
2023-04-15T11:52:19.199Z,98100.53
2023-04-15T11:55:08.393Z,98111.22
2023-04-15T11:58:10.806Z,98112.97
2023-04-15T12:01:00.247Z,98111.16
2023-04-15T12:03:49.415Z,98110.19
2023-04-15T12:06:37.427Z,98104.84
2023-04-15T12:09:25.377Z,98111.88
2023-04-15T12:12:12.853Z,98119.72
2023-04-15T12:15:00.158Z,98118.63
2023-04-15T12:17:51.740Z,98126.88
2023-04-15T12:20:45.904Z,98134.78
2023-04-15T12:23:37.878Z,98136.19
2023-04-15T12:26:29.820Z,98135.19
2023-04-15T12:29:17.771Z,98126.50
2023-04-15T12:32:10.953Z,98151.72
2023-04-15T12:34:58.423Z,98128.56
2023-04-15T12:37:45.558Z,98138.78
2023-04-15T12:40:32.606Z,98150.06
2023-04-15T12:43:19.754Z,98153.22
2023-04-15T12:46:08.716Z,98142.56
2023-04-15T12:48:55.974Z,98146.84
2023-04-15T12:51:43.085Z,98138.31
2023-04-15T12:54:33.295Z,98158.34
2023-04-15T12:57:20.359Z,98156.69
2023-04-15T13:00:09.516Z,98152.19
2023-04-15T13:02:56.650Z,98151.09
2023-04-15T13:05:43.818Z,98163.59
2023-04-15T13:08:31.418Z,98167.25
2023-04-15T13:11:18.440Z,98168.00
2023-04-15T13:14:07.670Z,98157.91
2023-04-15T13:16:55.108Z,98167.44
2023-04-15T13:19:42.707Z,98181.47
2023-04-15T13:22:30.286Z,98180.31
2023-04-15T13:25:17.465Z,98190.00
2023-04-15T13:28:04.502Z,98163.38
2023-04-15T13:30:52.055Z,98200.69
2023-04-15T13:33:39.153Z,98194.91
2023-04-15T13:36:27.456Z,98197.22
2023-04-15T13:39:14.576Z,98202.66
2023-04-15T13:42:02.893Z,98187.09
2023-04-15T13:44:54.327Z,98194.13
2023-04-15T13:47:42.131Z,98197.16
2023-04-15T13:50:29.796Z,98204.75
2023-04-15T13:53:16.991Z,98197.84
2023-04-15T13:56:04.317Z,98200.66
2023-04-15T13:58:53.092Z,98197.47
2023-04-15T14:01:41.579Z,98206.88
2023-04-15T14:04:28.976Z,98202.97
2023-04-15T14:07:16.329Z,98213.28
2023-04-15T14:10:04.013Z,98209.69
2023-04-15T14:12:51.509Z,98216.00
2023-04-15T14:15:38.563Z,98215.34
2023-04-15T14:18:25.933Z,98216.25
2023-04-15T14:21:13.100Z,98206.44
2023-04-15T14:24:00.375Z,98209.34
2023-04-15T14:26:47.767Z,98215.81
2023-04-15T14:29:35.180Z,98212.06
2023-04-15T14:32:22.471Z,98227.09
2023-04-15T14:35:09.827Z,98242.22
2023-04-15T14:37:57.069Z,98237.19
2023-04-15T14:40:45.425Z,98232.72
2023-04-15T14:43:33.388Z,98237.66
2023-04-15T14:46:20.626Z,98237.63
2023-04-15T14:49:08.243Z,98242.13
2023-04-15T14:51:55.374Z,98236.53
2023-04-15T14:54:42.376Z,98252.94
2023-04-15T14:57:29.583Z,98246.56
2023-04-15T15:00:16.760Z,98244.00
2023-04-15T15:03:04.121Z,98253.03
2023-04-15T15:05:51.739Z,98247.31
2023-04-15T15:08:38.989Z,98248.19
2023-04-15T15:11:27.455Z,98259.91
2023-04-15T15:14:15.317Z,98264.38
2023-04-15T15:17:03.064Z,98281.59
2023-04-15T15:19:50.205Z,98274.72
2023-04-15T15:22:37.250Z,98273.34
2023-04-15T15:25:25.028Z,98280.50
2023-04-15T15:28:12.305Z,98277.94
2023-04-15T15:30:59.495Z,98292.72
2023-04-15T15:33:46.894Z,98300.69
2023-04-15T15:36:34.085Z,98276.28
2023-04-15T15:39:22.565Z,98294.09
2023-04-15T15:42:09.623Z,98298.31
2023-04-15T15:44:56.684Z,98301.28
2023-04-15T15:47:44.291Z,98310.41
2023-04-15T15:50:31.932Z,98288.25
2023-04-15T15:53:21.004Z,98313.25
2023-04-15T15:56:08.527Z,98313.63
2023-04-15T15:58:55.669Z,98313.41
2023-04-15T16:01:43.583Z,98324.94
2023-04-15T16:04:31.188Z,98317.09
2023-04-15T16:07:18.494Z,98325.19
2023-04-15T16:10:06.348Z,98328.56
2023-04-15T16:12:54.025Z,98329.13
2023-04-15T16:15:41.368Z,98336.56
2023-04-15T16:18:28.693Z,98322.97
2023-04-15T16:21:16.451Z,98338.28
2023-04-15T16:24:03.983Z,98342.91
2023-04-15T16:26:51.081Z,98356.38
2023-04-15T16:29:38.516Z,98346.13
2023-04-15T16:32:26.468Z,98352.28
2023-04-15T16:35:16.336Z,98350.63
2023-04-15T16:38:04.039Z,98359.75
2023-04-15T16:40:51.688Z,98353.88
2023-04-15T16:43:39.232Z,98367.59
2023-04-15T16:46:26.900Z,98377.03
2023-04-15T16:49:14.565Z,98379.72
2023-04-15T16:52:02.672Z,98382.50
2023-04-15T16:54:50.785Z,98386.59
2023-04-15T16:58:01.038Z,98383.78
2023-04-15T17:00:45.544Z,98399.50
2023-04-15T17:03:33.868Z,98394.16
2023-04-15T17:06:21.562Z,98400.53
2023-04-15T17:09:09.369Z,98401.91
2023-04-15T17:11:56.853Z,98418.50
2023-04-15T17:14:44.158Z,98412.56
2023-04-15T17:17:31.833Z,98409.19
2023-04-15T17:20:19.890Z,98405.53
2023-04-15T17:23:07.353Z,98414.38
2023-04-15T17:25:54.531Z,98415.22
2023-04-15T17:28:41.994Z,98423.25
2023-04-15T17:31:30.511Z,98408.53
2023-04-15T17:34:18.122Z,98428.88
2023-04-15T17:37:05.757Z,98434.47
2023-04-15T17:39:53.500Z,98452.88
2023-04-15T17:42:41.942Z,98451.88
2023-04-15T17:45:29.639Z,98467.06
2023-04-15T17:48:17.247Z,98457.66
2023-04-15T17:51:04.897Z,98455.69
2023-04-15T17:53:52.357Z,98460.16
2023-04-15T17:56:39.728Z,98474.06
2023-04-15T17:59:28.491Z,98482.91
2023-04-15T18:02:16.136Z,98469.16
2023-04-15T18:05:03.773Z,98482.19
2023-04-15T18:07:52.964Z,98494.66
2023-04-15T18:10:40.466Z,98504.34
2023-04-15T18:13:28.996Z,98505.47
2023-04-15T18:16:16.593Z,98513.19
2023-04-15T18:19:04.164Z,98518.69
2023-04-15T18:21:52.454Z,98516.69
2023-04-15T18:24:39.575Z,98521.19
2023-04-15T18:27:28.163Z,98518.94
2023-04-15T18:30:15.921Z,98532.69
2023-04-15T18:33:03.431Z,98534.78
2023-04-15T18:35:51.242Z,98538.59
2023-04-15T18:38:40.227Z,98536.13
2023-04-15T18:41:27.866Z,98528.72
2023-04-15T18:44:15.171Z,98535.91
2023-04-15T18:47:02.969Z,98544.84
2023-04-15T18:49:50.546Z,98552.53
2023-04-15T18:52:38.072Z,98552.41
2023-04-15T18:55:25.978Z,98566.13
2023-04-15T18:58:13.658Z,98576.78
2023-04-15T19:01:01.829Z,98580.25
2023-04-15T19:03:49.004Z,98592.63
2023-04-15T19:06:36.174Z,98589.97
2023-04-15T19:09:25.236Z,98586.31
2023-04-15T19:12:12.575Z,98601.59
2023-04-15T19:15:00.319Z,98605.81
2023-04-15T19:17:48.304Z,98615.22
2023-04-15T19:20:38.446Z,98612.34
2023-04-15T19:23:27.778Z,98612.88
2023-04-15T19:26:15.395Z,98613.28
2023-04-15T19:29:03.663Z,98618.03
2023-04-15T19:31:52.175Z,98616.75
2023-04-15T19:34:40.605Z,98623.03
2023-04-15T19:37:28.358Z,98630.91
2023-04-15T19:40:16.483Z,98632.66
2023-04-15T19:43:04.200Z,98631.28
2023-04-15T19:45:53.133Z,98627.75
2023-04-15T19:48:41.438Z,98628.94
2023-04-15T19:51:30.526Z,98624.31
2023-04-15T19:54:18.432Z,98620.16
2023-04-15T19:57:06.943Z,98620.94
2023-04-15T19:59:54.684Z,98632.03
2023-04-15T20:02:43.500Z,98631.00
2023-04-15T20:05:31.485Z,98610.44
2023-04-15T20:08:19.161Z,98638.94
2023-04-15T20:11:07.265Z,98626.13
2023-04-15T20:13:56.413Z,98635.41
2023-04-15T20:16:44.409Z,98629.91
2023-04-15T20:19:34.018Z,98645.34
2023-04-15T20:22:21.628Z,98636.94
2023-04-15T20:25:09.702Z,98641.00
2023-04-15T20:28:00.407Z,98646.34
2023-04-15T20:30:48.133Z,98652.78
2023-04-15T20:33:35.723Z,98642.97
2023-04-15T20:36:23.271Z,98650.13
2023-04-15T20:39:11.334Z,98643.03
2023-04-15T20:41:59.112Z,98640.91
2023-04-15T20:44:46.677Z,98648.91
2023-04-15T20:47:33.905Z,98664.03
2023-04-15T20:50:21.349Z,98662.34
2023-04-15T20:53:08.437Z,98676.63
2023-04-15T20:55:58.330Z,98670.81
2023-04-15T20:58:45.481Z,98661.31
2023-04-15T21:01:32.564Z,98664.94
2023-04-15T21:04:21.863Z,98687.75
2023-04-15T21:07:10.077Z,98684.97
2023-04-15T21:09:57.490Z,98688.59
2023-04-15T21:12:45.007Z,98687.63
2023-04-15T21:15:32.508Z,98689.59
2023-04-15T21:18:21.403Z,98701.94
2023-04-15T21:21:08.477Z,98701.16
2023-04-15T21:23:55.639Z,98718.63
2023-04-15T21:26:42.726Z,98707.78
2023-04-15T21:29:29.887Z,98708.03
2023-04-15T21:32:17.053Z,98713.38
2023-04-15T21:35:04.437Z,98725.66
2023-04-15T21:37:51.476Z,98711.44
2023-04-15T21:40:40.819Z,98730.53
2023-04-15T21:43:27.873Z,98718.56
2023-04-15T21:46:23.612Z,98738.53
2023-04-15T21:49:11.848Z,98733.19
2023-04-15T21:52:01.449Z,98750.63
2023-04-15T21:54:48.641Z,98742.28
2023-04-15T21:57:35.729Z,98748.66
2023-04-15T22:00:23.225Z,98739.63
2023-04-15T22:03:10.697Z,98737.09
2023-04-15T22:05:58.188Z,98743.22
2023-04-15T22:08:56.208Z,98739.19
2023-04-15T22:11:44.397Z,98729.38
2023-04-15T22:14:31.490Z,98740.28
2023-04-15T22:17:18.697Z,98740.69
2023-04-15T22:20:06.372Z,98744.50
2023-04-15T22:22:54.370Z,98712.22
2023-04-15T22:25:41.684Z,98755.41
2023-04-15T22:28:28.729Z,98747.31
2023-04-15T22:31:16.032Z,98768.69
2023-04-15T22:34:03.074Z,98774.41
2023-04-15T22:36:51.605Z,98791.06
2023-04-15T22:39:38.632Z,98779.47
2023-04-15T22:42:25.736Z,98789.09
2023-04-15T22:45:12.814Z,98794.63
2023-04-15T22:47:59.914Z,98791.19
2023-04-15T22:50:47.055Z,98789.91
2023-04-15T22:53:34.354Z,98805.28
2023-04-15T22:56:22.958Z,98807.84
2023-04-15T22:59:10.336Z,98811.91
2023-04-15T23:03:33.510Z,98814.00
2023-04-15T23:06:30.640Z,98811.66
2023-04-15T23:09:17.724Z,98809.25
2023-04-15T23:12:05.145Z,98826.78
2023-04-15T23:14:52.162Z,98813.38
2023-04-15T23:17:39.247Z,98821.25
2023-04-15T23:20:26.342Z,98836.03
2023-04-15T23:23:13.537Z,98836.63
2023-04-15T23:26:01.484Z,98836.72
2023-04-15T23:28:48.524Z,98820.75
2023-04-15T23:31:36.427Z,98836.06
2023-04-15T23:34:23.480Z,98832.38
2023-04-15T23:37:10.662Z,98828.75
2023-04-15T23:39:57.714Z,98831.78
2023-04-15T23:42:44.793Z,98830.22
2023-04-15T23:45:31.817Z,98838.19
2023-04-15T23:48:18.882Z,98832.38
2023-04-15T23:51:06.016Z,98841.94
2023-04-15T23:53:53.126Z,98828.75
2023-04-15T23:56:40.219Z,98848.25
2023-04-15T23:59:27.299Z,98831.09
